sensor_id;sensor_type;location;lat;lon;timestamp;temperature;humidity
16128;DHT22;8168;49.036;7.690;2023-07-09T00:00:18;20.90;99.90
16128;DHT22;8168;49.036;7.690;2023-07-09T00:02:49;20.90;99.90
16128;DHT22;8168;49.036;7.690;2023-07-09T00:05:19;20.90;99.90
16128;DHT22;8168;49.036;7.690;2023-07-09T00:07:50;20.80;99.90
16128;DHT22;8168;49.036;7.690;2023-07-09T00:10:21;20.80;99.90
16128;DHT22;8168;49.036;7.690;2023-07-09T00:12:52;20.80;99.90
16128;DHT22;8168;49.036;7.690;2023-07-09T00:15:24;20.70;99.90
16128;DHT22;8168;49.036;7.690;2023-07-09T00:17:56;20.60;99.90
16128;DHT22;8168;49.036;7.690;2023-07-09T00:20:26;20.60;99.90
16128;DHT22;8168;49.036;7.690;2023-07-09T00:22:57;20.60;99.90
16128;DHT22;8168;49.036;7.690;2023-07-09T00:25:27;20.60;99.90
16128;DHT22;8168;49.036;7.690;2023-07-09T00:27:58;20.50;99.90
16128;DHT22;8168;49.036;7.690;2023-07-09T00:30:29;20.40;99.90
16128;DHT22;8168;49.036;7.690;2023-07-09T00:33:00;20.40;99.90
16128;DHT22;8168;49.036;7.690;2023-07-09T00:35:31;20.40;99.90
16128;DHT22;8168;49.036;7.690;2023-07-09T00:38:02;20.40;99.90
16128;DHT22;8168;49.036;7.690;2023-07-09T00:40:33;20.30;99.90
16128;DHT22;8168;49.036;7.690;2023-07-09T00:43:13;20.30;99.90
16128;DHT22;8168;49.036;7.690;2023-07-09T00:49:03;20.30;99.90
16128;DHT22;8168;49.036;7.690;2023-07-09T00:51:41;20.10;99.90
16128;DHT22;8168;49.036;7.690;2023-07-09T00:54:20;20.00;99.90
16128;DHT22;8168;49.036;7.690;2023-07-09T00:56:53;20.00;99.90
16128;DHT22;8168;49.036;7.690;2023-07-09T00:59:26;20.00;99.90
16128;DHT22;8168;49.036;7.690;2023-07-09T01:01:59;20.00;99.90
16128;DHT22;8168;49.036;7.690;2023-07-09T01:04:30;20.00;99.90
16128;DHT22;8168;49.036;7.690;2023-07-09T01:07:01;20.10;99.90
16128;DHT22;8168;49.036;7.690;2023-07-09T01:09:32;19.90;99.90
16128;DHT22;8168;49.036;7.690;2023-07-09T01:12:07;19.90;99.90
16128;DHT22;8168;49.036;7.690;2023-07-09T01:14:38;19.90;99.90
16128;DHT22;8168;49.036;7.690;2023-07-09T01:17:09;19.80;99.90
16128;DHT22;8168;49.036;7.690;2023-07-09T01:19:43;19.80;99.90
16128;DHT22;8168;49.036;7.690;2023-07-09T01:22:16;19.80;99.90
16128;DHT22;8168;49.036;7.690;2023-07-09T01:25:01;19.70;99.90
16128;DHT22;8168;49.036;7.690;2023-07-09T01:27:41;19.80;99.90
16128;DHT22;8168;49.036;7.690;2023-07-09T01:30:22;19.80;99.90
16128;DHT22;8168;49.036;7.690;2023-07-09T01:32:57;19.80;99.90
16128;DHT22;8168;49.036;7.690;2023-07-09T01:35:30;19.70;99.90
16128;DHT22;8168;49.036;7.690;2023-07-09T01:38:02;19.70;99.90
16128;DHT22;8168;49.036;7.690;2023-07-09T01:40:33;19.70;99.90
16128;DHT22;8168;49.036;7.690;2023-07-09T01:43:04;19.70;99.90
16128;DHT22;8168;49.036;7.690;2023-07-09T01:45:38;19.70;99.90
16128;DHT22;8168;49.036;7.690;2023-07-09T01:48:08;19.60;99.90
16128;DHT22;8168;49.036;7.690;2023-07-09T01:50:44;19.70;99.90
16128;DHT22;8168;49.036;7.690;2023-07-09T01:53:16;19.60;99.90
16128;DHT22;8168;49.036;7.690;2023-07-09T01:55:48;19.60;99.90
16128;DHT22;8168;49.036;7.690;2023-07-09T01:58:18;19.60;99.90
16128;DHT22;8168;49.036;7.690;2023-07-09T02:00:49;19.60;99.90
16128;DHT22;8168;49.036;7.690;2023-07-09T02:03:20;19.50;99.90
16128;DHT22;8168;49.036;7.690;2023-07-09T02:05:54;19.50;99.90
16128;DHT22;8168;49.036;7.690;2023-07-09T02:08:25;19.40;99.90
16128;DHT22;8168;49.036;7.690;2023-07-09T02:10:55;19.40;99.90
16128;DHT22;8168;49.036;7.690;2023-07-09T02:13:26;19.30;99.90
16128;DHT22;8168;49.036;7.690;2023-07-09T02:15:56;19.30;99.90
16128;DHT22;8168;49.036;7.690;2023-07-09T02:18:28;19.20;99.90
16128;DHT22;8168;49.036;7.690;2023-07-09T02:20:59;19.20;99.90
16128;DHT22;8168;49.036;7.690;2023-07-09T02:23:30;19.10;99.90
16128;DHT22;8168;49.036;7.690;2023-07-09T02:26:00;19.10;99.90
16128;DHT22;8168;49.036;7.690;2023-07-09T02:28:31;19.10;99.90
16128;DHT22;8168;49.036;7.690;2023-07-09T02:31:01;19.10;99.90
16128;DHT22;8168;49.036;7.690;2023-07-09T02:33:32;19.10;99.90
16128;DHT22;8168;49.036;7.690;2023-07-09T02:36:03;19.00;99.90
16128;DHT22;8168;49.036;7.690;2023-07-09T02:38:34;19.10;99.90
16128;DHT22;8168;49.036;7.690;2023-07-09T02:41:04;19.00;99.90
16128;DHT22;8168;49.036;7.690;2023-07-09T02:43:35;19.00;99.90
16128;DHT22;8168;49.036;7.690;2023-07-09T02:46:06;19.00;99.90
16128;DHT22;8168;49.036;7.690;2023-07-09T02:48:37;19.00;99.90
16128;DHT22;8168;49.036;7.690;2023-07-09T02:51:07;18.90;99.90
16128;DHT22;8168;49.036;7.690;2023-07-09T02:53:38;18.90;99.90
16128;DHT22;8168;49.036;7.690;2023-07-09T02:56:09;18.90;99.90
16128;DHT22;8168;49.036;7.690;2023-07-09T02:58:39;18.80;99.90
16128;DHT22;8168;49.036;7.690;2023-07-09T03:01:10;18.70;99.90
16128;DHT22;8168;49.036;7.690;2023-07-09T03:03:40;18.70;99.90
16128;DHT22;8168;49.036;7.690;2023-07-09T03:06:11;18.60;99.90
16128;DHT22;8168;49.036;7.690;2023-07-09T03:08:42;18.60;99.90
16128;DHT22;8168;49.036;7.690;2023-07-09T03:11:14;18.60;99.90
16128;DHT22;8168;49.036;7.690;2023-07-09T03:13:46;18.60;99.90
16128;DHT22;8168;49.036;7.690;2023-07-09T03:16:17;18.60;99.90
16128;DHT22;8168;49.036;7.690;2023-07-09T03:18:49;18.60;99.90
16128;DHT22;8168;49.036;7.690;2023-07-09T03:21:21;18.50;99.90
16128;DHT22;8168;49.036;7.690;2023-07-09T03:23:53;18.50;99.90
16128;DHT22;8168;49.036;7.690;2023-07-09T03:26:24;18.50;99.90
16128;DHT22;8168;49.036;7.690;2023-07-09T03:28:56;18.50;99.90
16128;DHT22;8168;49.036;7.690;2023-07-09T03:31:26;18.40;99.90
16128;DHT22;8168;49.036;7.690;2023-07-09T03:33:57;18.40;99.90
16128;DHT22;8168;49.036;7.690;2023-07-09T03:36:28;18.40;99.90
16128;DHT22;8168;49.036;7.690;2023-07-09T03:38:59;18.40;99.90
16128;DHT22;8168;49.036;7.690;2023-07-09T03:41:29;18.30;99.90
16128;DHT22;8168;49.036;7.690;2023-07-09T03:44:00;18.30;99.90
16128;DHT22;8168;49.036;7.690;2023-07-09T03:46:31;18.20;99.90
16128;DHT22;8168;49.036;7.690;2023-07-09T03:49:01;18.30;99.90
16128;DHT22;8168;49.036;7.690;2023-07-09T03:51:32;18.20;99.90
16128;DHT22;8168;49.036;7.690;2023-07-09T03:54:02;18.20;99.90
16128;DHT22;8168;49.036;7.690;2023-07-09T03:56:33;18.20;99.90
16128;DHT22;8168;49.036;7.690;2023-07-09T03:59:04;18.20;99.90
16128;DHT22;8168;49.036;7.690;2023-07-09T04:01:34;18.20;99.90
16128;DHT22;8168;49.036;7.690;2023-07-09T04:04:05;18.20;99.90
16128;DHT22;8168;49.036;7.690;2023-07-09T04:06:35;18.20;99.90
16128;DHT22;8168;49.036;7.690;2023-07-09T04:09:06;18.20;99.90
16128;DHT22;8168;49.036;7.690;2023-07-09T04:11:37;18.20;99.90
16128;DHT22;8168;49.036;7.690;2023-07-09T04:14:07;18.20;99.90
16128;DHT22;8168;49.036;7.690;2023-07-09T04:16:38;18.20;99.90
16128;DHT22;8168;49.036;7.690;2023-07-09T04:19:08;18.20;99.90
16128;DHT22;8168;49.036;7.690;2023-07-09T04:21:39;18.10;99.90
16128;DHT22;8168;49.036;7.690;2023-07-09T04:24:09;18.20;99.90
16128;DHT22;8168;49.036;7.690;2023-07-09T04:26:40;18.10;99.90
16128;DHT22;8168;49.036;7.690;2023-07-09T04:29:11;18.20;99.90
16128;DHT22;8168;49.036;7.690;2023-07-09T04:31:41;18.10;99.90
16128;DHT22;8168;49.036;7.690;2023-07-09T04:34:12;18.10;99.90
16128;DHT22;8168;49.036;7.690;2023-07-09T04:36:43;18.10;99.90
16128;DHT22;8168;49.036;7.690;2023-07-09T04:39:13;18.10;99.90
16128;DHT22;8168;49.036;7.690;2023-07-09T04:41:45;17.00;99.90
16128;DHT22;8168;49.036;7.690;2023-07-09T04:44:16;18.10;99.90
16128;DHT22;8168;49.036;7.690;2023-07-09T04:46:46;18.10;99.90
16128;DHT22;8168;49.036;7.690;2023-07-09T04:49:17;18.10;99.90
16128;DHT22;8168;49.036;7.690;2023-07-09T04:51:47;18.20;99.90
16128;DHT22;8168;49.036;7.690;2023-07-09T04:54:18;18.20;99.90
16128;DHT22;8168;49.036;7.690;2023-07-09T04:56:49;18.30;99.90
16128;DHT22;8168;49.036;7.690;2023-07-09T04:59:20;18.30;99.90
16128;DHT22;8168;49.036;7.690;2023-07-09T05:01:50;18.40;99.90
16128;DHT22;8168;49.036;7.690;2023-07-09T05:04:21;18.40;99.90
16128;DHT22;8168;49.036;7.690;2023-07-09T05:06:52;18.40;99.90
16128;DHT22;8168;49.036;7.690;2023-07-09T05:09:23;18.50;99.90
16128;DHT22;8168;49.036;7.690;2023-07-09T05:11:53;18.50;99.90
16128;DHT22;8168;49.036;7.690;2023-07-09T05:14:26;18.60;99.90
16128;DHT22;8168;49.036;7.690;2023-07-09T05:16:57;18.60;99.90
16128;DHT22;8168;49.036;7.690;2023-07-09T05:19:28;18.70;99.90
16128;DHT22;8168;49.036;7.690;2023-07-09T05:21:59;18.80;99.90
16128;DHT22;8168;49.036;7.690;2023-07-09T05:24:29;18.90;99.90
16128;DHT22;8168;49.036;7.690;2023-07-09T05:27:00;19.00;99.90
16128;DHT22;8168;49.036;7.690;2023-07-09T05:29:31;19.10;99.90
16128;DHT22;8168;49.036;7.690;2023-07-09T05:32:01;19.20;99.90
16128;DHT22;8168;49.036;7.690;2023-07-09T05:34:32;19.20;99.90
16128;DHT22;8168;49.036;7.690;2023-07-09T05:37:03;19.40;99.90
16128;DHT22;8168;49.036;7.690;2023-07-09T05:39:34;19.50;99.90
16128;DHT22;8168;49.036;7.690;2023-07-09T05:42:05;19.60;99.90
16128;DHT22;8168;49.036;7.690;2023-07-09T05:44:36;19.70;99.90
16128;DHT22;8168;49.036;7.690;2023-07-09T05:47:06;19.80;99.90
16128;DHT22;8168;49.036;7.690;2023-07-09T05:49:38;19.90;99.90
16128;DHT22;8168;49.036;7.690;2023-07-09T05:52:09;20.00;99.90
16128;DHT22;8168;49.036;7.690;2023-07-09T05:54:39;20.10;99.90
16128;DHT22;8168;49.036;7.690;2023-07-09T05:57:10;20.30;99.90
16128;DHT22;8168;49.036;7.690;2023-07-09T05:59:41;20.40;99.90
16128;DHT22;8168;49.036;7.690;2023-07-09T06:02:13;20.50;99.90
16128;DHT22;8168;49.036;7.690;2023-07-09T06:04:44;20.60;99.90
16128;DHT22;8168;49.036;7.690;2023-07-09T06:07:15;20.70;99.90
16128;DHT22;8168;49.036;7.690;2023-07-09T06:09:46;20.80;99.90
16128;DHT22;8168;49.036;7.690;2023-07-09T06:12:18;20.90;99.90
16128;DHT22;8168;49.036;7.690;2023-07-09T06:14:49;21.00;99.90
16128;DHT22;8168;49.036;7.690;2023-07-09T06:17:20;21.20;99.90
16128;DHT22;8168;49.036;7.690;2023-07-09T06:19:50;21.20;99.90
16128;DHT22;8168;49.036;7.690;2023-07-09T06:22:21;21.30;99.90
16128;DHT22;8168;49.036;7.690;2023-07-09T06:24:53;21.40;99.90
16128;DHT22;8168;49.036;7.690;2023-07-09T06:27:24;21.50;99.90
16128;DHT22;8168;49.036;7.690;2023-07-09T06:29:54;21.70;99.90
16128;DHT22;8168;49.036;7.690;2023-07-09T06:32:26;21.80;99.90
16128;DHT22;8168;49.036;7.690;2023-07-09T06:34:57;21.80;99.90
16128;DHT22;8168;49.036;7.690;2023-07-09T06:37:27;21.90;99.90
16128;DHT22;8168;49.036;7.690;2023-07-09T06:39:58;22.00;99.90
16128;DHT22;8168;49.036;7.690;2023-07-09T06:42:28;22.20;99.90
16128;DHT22;8168;49.036;7.690;2023-07-09T06:44:59;22.30;99.90
16128;DHT22;8168;49.036;7.690;2023-07-09T06:47:30;22.30;99.90
16128;DHT22;8168;49.036;7.690;2023-07-09T06:50:01;22.50;99.90
16128;DHT22;8168;49.036;7.690;2023-07-09T06:52:31;22.50;99.90
16128;DHT22;8168;49.036;7.690;2023-07-09T06:55:02;22.60;99.90
16128;DHT22;8168;49.036;7.690;2023-07-09T06:57:33;22.70;99.90
16128;DHT22;8168;49.036;7.690;2023-07-09T07:00:04;22.90;99.90
16128;DHT22;8168;49.036;7.690;2023-07-09T07:02:38;23.00;99.90
16128;DHT22;8168;49.036;7.690;2023-07-09T07:05:08;25.10;99.90
16128;DHT22;8168;49.036;7.690;2023-07-09T07:07:39;23.30;99.90
16128;DHT22;8168;49.036;7.690;2023-07-09T07:10:09;23.40;99.90
16128;DHT22;8168;49.036;7.690;2023-07-09T07:12:43;23.50;99.90
16128;DHT22;8168;49.036;7.690;2023-07-09T07:15:17;23.70;99.90
16128;DHT22;8168;49.036;7.690;2023-07-09T07:17:48;23.80;99.90
16128;DHT22;8168;49.036;7.690;2023-07-09T07:20:18;24.00;99.90
16128;DHT22;8168;49.036;7.690;2023-07-09T07:22:49;24.20;99.90
16128;DHT22;8168;49.036;7.690;2023-07-09T07:25:20;24.40;99.90
16128;DHT22;8168;49.036;7.690;2023-07-09T07:27:51;24.50;99.90
16128;DHT22;8168;49.036;7.690;2023-07-09T07:30:21;24.60;99.90
16128;DHT22;8168;49.036;7.690;2023-07-09T07:32:52;24.60;99.90
16128;DHT22;8168;49.036;7.690;2023-07-09T07:35:23;24.80;99.90
16128;DHT22;8168;49.036;7.690;2023-07-09T07:37:53;24.90;99.90
16128;DHT22;8168;49.036;7.690;2023-07-09T07:40:24;25.00;99.90
16128;DHT22;8168;49.036;7.690;2023-07-09T07:42:55;25.10;99.90
16128;DHT22;8168;49.036;7.690;2023-07-09T07:45:26;25.20;99.90
16128;DHT22;8168;49.036;7.690;2023-07-09T07:47:56;25.30;99.90
16128;DHT22;8168;49.036;7.690;2023-07-09T07:50:27;25.40;99.90
16128;DHT22;8168;49.036;7.690;2023-07-09T07:52:57;25.60;99.90
16128;DHT22;8168;49.036;7.690;2023-07-09T07:55:28;25.70;99.90
16128;DHT22;8168;49.036;7.690;2023-07-09T07:57:59;25.80;99.90
16128;DHT22;8168;49.036;7.690;2023-07-09T08:00:33;26.00;99.90
16128;DHT22;8168;49.036;7.690;2023-07-09T08:03:03;26.10;99.90
16128;DHT22;8168;49.036;7.690;2023-07-09T08:05:34;26.20;99.90
16128;DHT22;8168;49.036;7.690;2023-07-09T08:08:05;26.30;99.90
16128;DHT22;8168;49.036;7.690;2023-07-09T08:10:35;26.50;99.90
16128;DHT22;8168;49.036;7.690;2023-07-09T08:13:06;26.60;99.90
16128;DHT22;8168;49.036;7.690;2023-07-09T08:15:36;26.80;99.90
16128;DHT22;8168;49.036;7.690;2023-07-09T08:18:08;26.90;99.90
16128;DHT22;8168;49.036;7.690;2023-07-09T08:20:43;27.10;99.90
16128;DHT22;8168;49.036;7.690;2023-07-09T08:23:14;27.20;99.90
16128;DHT22;8168;49.036;7.690;2023-07-09T08:25:55;27.30;99.90
16128;DHT22;8168;49.036;7.690;2023-07-09T08:28:26;27.40;99.90
16128;DHT22;8168;49.036;7.690;2023-07-09T08:30:57;27.60;99.90
16128;DHT22;8168;49.036;7.690;2023-07-09T08:33:28;27.60;99.80
16128;DHT22;8168;49.036;7.690;2023-07-09T08:35:58;27.80;99.40
16128;DHT22;8168;49.036;7.690;2023-07-09T08:38:29;27.90;99.00
16128;DHT22;8168;49.036;7.690;2023-07-09T08:44:41;28.20;97.90
16128;DHT22;8168;49.036;7.690;2023-07-09T08:50:02;28.60;97.00
16128;DHT22;8168;49.036;7.690;2023-07-09T08:52:55;28.60;96.50
16128;DHT22;8168;49.036;7.690;2023-07-09T08:55:31;28.70;96.50
16128;DHT22;8168;49.036;7.690;2023-07-09T08:58:26;28.80;96.30
16128;DHT22;8168;49.036;7.690;2023-07-09T09:01:05;28.80;95.60
16128;DHT22;8168;49.036;7.690;2023-07-09T09:03:43;28.90;95.50
16128;DHT22;8168;49.036;7.690;2023-07-09T09:06:18;29.00;94.90
16128;DHT22;8168;49.036;7.690;2023-07-09T09:14:31;29.20;94.30
16128;DHT22;8168;49.036;7.690;2023-07-09T09:17:11;29.30;92.40
16128;DHT22;8168;49.036;7.690;2023-07-09T09:19:51;29.40;91.60
16128;DHT22;8168;49.036;7.690;2023-07-09T09:22:28;29.40;91.50
16128;DHT22;8168;49.036;7.690;2023-07-09T09:25:11;29.60;90.50
16128;DHT22;8168;49.036;7.690;2023-07-09T09:27:45;29.70;90.60
16128;DHT22;8168;49.036;7.690;2023-07-09T09:30:19;29.80;90.20
16128;DHT22;8168;49.036;7.690;2023-07-09T09:33:11;30.00;89.40
16128;DHT22;8168;49.036;7.690;2023-07-09T09:35:43;30.00;88.70
16128;DHT22;8168;49.036;7.690;2023-07-09T09:38:21;30.10;88.00
16128;DHT22;8168;49.036;7.690;2023-07-09T09:40:59;30.10;85.00
16128;DHT22;8168;49.036;7.690;2023-07-09T09:43:33;30.20;83.70
16128;DHT22;8168;49.036;7.690;2023-07-09T09:46:06;30.20;82.80
16128;DHT22;8168;49.036;7.690;2023-07-09T09:48:37;30.30;83.50
16128;DHT22;8168;49.036;7.690;2023-07-09T09:51:11;30.40;84.60
16128;DHT22;8168;49.036;7.690;2023-07-09T09:54:10;30.50;83.00
16128;DHT22;8168;49.036;7.690;2023-07-09T09:56:37;30.50;85.50
16128;DHT22;8168;49.036;7.690;2023-07-09T09:59:18;30.60;84.50
16128;DHT22;8168;49.036;7.690;2023-07-09T10:02:00;30.60;84.00
16128;DHT22;8168;49.036;7.690;2023-07-09T10:04:31;30.60;82.50
16128;DHT22;8168;49.036;7.690;2023-07-09T10:07:07;30.60;83.30
16128;DHT22;8168;49.036;7.690;2023-07-09T10:09:51;30.70;84.10
16128;DHT22;8168;49.036;7.690;2023-07-09T10:18:06;31.10;77.00
16128;DHT22;8168;49.036;7.690;2023-07-09T10:21:03;31.20;80.40
16128;DHT22;8168;49.036;7.690;2023-07-09T10:27:11;31.40;77.90
16128;DHT22;8168;49.036;7.690;2023-07-09T10:29:52;31.60;75.70
16128;DHT22;8168;49.036;7.690;2023-07-09T10:32:49;31.70;76.00
16128;DHT22;8168;49.036;7.690;2023-07-09T10:35:32;31.80;74.10
16128;DHT22;8168;49.036;7.690;2023-07-09T10:38:11;31.90;73.10
16128;DHT22;8168;49.036;7.690;2023-07-09T10:40:48;32.10;73.80
16128;DHT22;8168;49.036;7.690;2023-07-09T10:43:36;32.20;73.10
16128;DHT22;8168;49.036;7.690;2023-07-09T10:46:14;32.30;74.00
16128;DHT22;8168;49.036;7.690;2023-07-09T10:48:47;32.50;72.10
16128;DHT22;8168;49.036;7.690;2023-07-09T10:51:36;32.70;71.10
16128;DHT22;8168;49.036;7.690;2023-07-09T10:56:39;32.80;67.10
16128;DHT22;8168;49.036;7.690;2023-07-09T10:59:21;32.80;68.30
16128;DHT22;8168;49.036;7.690;2023-07-09T11:02:01;33.00;68.30
16128;DHT22;8168;49.036;7.690;2023-07-09T11:04:44;33.00;67.90
16128;DHT22;8168;49.036;7.690;2023-07-09T11:09:58;32.90;65.20
16128;DHT22;8168;49.036;7.690;2023-07-09T11:12:39;33.00;65.80
16128;DHT22;8168;49.036;7.690;2023-07-09T11:15:15;32.90;64.00
16128;DHT22;8168;49.036;7.690;2023-07-09T11:17:47;32.90;64.00
16128;DHT22;8168;49.036;7.690;2023-07-09T11:20:32;32.90;64.40
16128;DHT22;8168;49.036;7.690;2023-07-09T11:23:35;32.80;64.70
16128;DHT22;8168;49.036;7.690;2023-07-09T11:26:14;32.80;61.90
16128;DHT22;8168;49.036;7.690;2023-07-09T11:28:50;32.80;61.10
16128;DHT22;8168;49.036;7.690;2023-07-09T11:31:34;32.80;62.80
16128;DHT22;8168;49.036;7.690;2023-07-09T11:36:59;32.60;63.10
16128;DHT22;8168;49.036;7.690;2023-07-09T11:39:51;32.50;63.60
16128;DHT22;8168;49.036;7.690;2023-07-09T11:45:16;32.60;64.80
16128;DHT22;8168;49.036;7.690;2023-07-09T11:50:45;32.50;65.60
16128;DHT22;8168;49.036;7.690;2023-07-09T11:53:31;32.50;65.10
16128;DHT22;8168;49.036;7.690;2023-07-09T11:56:08;32.40;64.40
16128;DHT22;8168;49.036;7.690;2023-07-09T11:58:53;32.50;67.10
16128;DHT22;8168;49.036;7.690;2023-07-09T12:01:42;32.60;66.00
16128;DHT22;8168;49.036;7.690;2023-07-09T12:04:18;32.80;67.30
16128;DHT22;8168;49.036;7.690;2023-07-09T12:06:50;32.80;67.00
16128;DHT22;8168;49.036;7.690;2023-07-09T12:09:23;33.00;67.30
16128;DHT22;8168;49.036;7.690;2023-07-09T12:11:53;33.00;64.90
16128;DHT22;8168;49.036;7.690;2023-07-09T12:14:24;33.00;64.80
16128;DHT22;8168;49.036;7.690;2023-07-09T12:16:54;33.00;65.20
16128;DHT22;8168;49.036;7.690;2023-07-09T12:19:29;32.90;64.10
16128;DHT22;8168;49.036;7.690;2023-07-09T12:22:00;33.10;64.90
16128;DHT22;8168;49.036;7.690;2023-07-09T12:24:36;33.10;64.90
16128;DHT22;8168;49.036;7.690;2023-07-09T12:27:25;33.20;63.60
16128;DHT22;8168;49.036;7.690;2023-07-09T12:29:57;35.00;66.50
16128;DHT22;8168;49.036;7.690;2023-07-09T12:32:27;33.40;65.10
16128;DHT22;8168;49.036;7.690;2023-07-09T12:34:58;33.50;63.60
16128;DHT22;8168;49.036;7.690;2023-07-09T12:37:31;33.60;64.40
16128;DHT22;8168;49.036;7.690;2023-07-09T12:40:03;33.50;64.30
16128;DHT22;8168;49.036;7.690;2023-07-09T12:42:37;33.40;62.90
16128;DHT22;8168;49.036;7.690;2023-07-09T12:45:18;33.30;61.90
16128;DHT22;8168;49.036;7.690;2023-07-09T12:47:50;33.30;62.60
16128;DHT22;8168;49.036;7.690;2023-07-09T12:50:30;33.30;63.10
16128;DHT22;8168;49.036;7.690;2023-07-09T12:53:08;33.30;62.70
16128;DHT22;8168;49.036;7.690;2023-07-09T12:55:45;33.50;62.40
16128;DHT22;8168;49.036;7.690;2023-07-09T12:58:29;33.50;62.10
16128;DHT22;8168;49.036;7.690;2023-07-09T13:01:05;33.70;62.60
16128;DHT22;8168;49.036;7.690;2023-07-09T13:03:36;33.80;61.50
16128;DHT22;8168;49.036;7.690;2023-07-09T13:06:34;33.80;63.10
16128;DHT22;8168;49.036;7.690;2023-07-09T13:09:21;33.90;64.90
16128;DHT22;8168;49.036;7.690;2023-07-09T13:11:54;34.00;62.50
16128;DHT22;8168;49.036;7.690;2023-07-09T13:14:29;34.10;62.80
16128;DHT22;8168;49.036;7.690;2023-07-09T13:17:05;34.30;61.10
16128;DHT22;8168;49.036;7.690;2023-07-09T13:19:36;34.20;59.40
16128;DHT22;8168;49.036;7.690;2023-07-09T13:22:10;34.10;59.20
16128;DHT22;8168;49.036;7.690;2023-07-09T13:24:43;34.00;58.10
16128;DHT22;8168;49.036;7.690;2023-07-09T13:27:14;33.40;58.70
16128;DHT22;8168;49.036;7.690;2023-07-09T13:29:45;34.00;57.80
16128;DHT22;8168;49.036;7.690;2023-07-09T13:32:16;33.90;58.30
16128;DHT22;8168;49.036;7.690;2023-07-09T13:34:47;33.90;58.20
16128;DHT22;8168;49.036;7.690;2023-07-09T13:37:18;34.00;59.50
16128;DHT22;8168;49.036;7.690;2023-07-09T13:39:48;34.10;59.00
16128;DHT22;8168;49.036;7.690;2023-07-09T13:42:19;34.10;58.80
16128;DHT22;8168;49.036;7.690;2023-07-09T13:44:49;34.10;57.70
16128;DHT22;8168;49.036;7.690;2023-07-09T13:47:20;34.00;56.60
16128;DHT22;8168;49.036;7.690;2023-07-09T13:49:51;33.90;57.30
16128;DHT22;8168;49.036;7.690;2023-07-09T13:52:23;34.00;56.20
16128;DHT22;8168;49.036;7.690;2023-07-09T13:54:55;34.00;55.90
16128;DHT22;8168;49.036;7.690;2023-07-09T13:57:26;33.90;54.60
16128;DHT22;8168;49.036;7.690;2023-07-09T13:59:56;33.90;54.00
16128;DHT22;8168;49.036;7.690;2023-07-09T14:02:30;33.80;52.50
16128;DHT22;8168;49.036;7.690;2023-07-09T14:05:06;33.80;53.10
16128;DHT22;8168;49.036;7.690;2023-07-09T14:07:39;33.80;54.00
16128;DHT22;8168;49.036;7.690;2023-07-09T14:10:13;33.80;53.30
16128;DHT22;8168;49.036;7.690;2023-07-09T14:12:46;33.80;53.40
16128;DHT22;8168;49.036;7.690;2023-07-09T14:15:19;33.70;54.00
16128;DHT22;8168;49.036;7.690;2023-07-09T14:17:50;33.70;53.70
16128;DHT22;8168;49.036;7.690;2023-07-09T14:20:22;33.70;54.10
16128;DHT22;8168;49.036;7.690;2023-07-09T14:22:53;33.60;53.90
16128;DHT22;8168;49.036;7.690;2023-07-09T14:25:25;33.60;54.00
16128;DHT22;8168;49.036;7.690;2023-07-09T14:27:58;33.60;54.30
16128;DHT22;8168;49.036;7.690;2023-07-09T14:30:28;33.60;53.40
16128;DHT22;8168;49.036;7.690;2023-07-09T14:32:59;33.60;52.90
16128;DHT22;8168;49.036;7.690;2023-07-09T14:35:29;33.60;54.40
16128;DHT22;8168;49.036;7.690;2023-07-09T14:38:00;33.50;56.00
16128;DHT22;8168;49.036;7.690;2023-07-09T14:40:31;33.50;54.90
16128;DHT22;8168;49.036;7.690;2023-07-09T14:43:01;32.60;53.70
16128;DHT22;8168;49.036;7.690;2023-07-09T14:45:33;33.40;55.30
16128;DHT22;8168;49.036;7.690;2023-07-09T14:48:16;33.40;56.00
16128;DHT22;8168;49.036;7.690;2023-07-09T14:50:47;33.30;54.60
16128;DHT22;8168;49.036;7.690;2023-07-09T14:53:25;33.20;54.60
16128;DHT22;8168;49.036;7.690;2023-07-09T14:55:56;33.20;56.10
16128;DHT22;8168;49.036;7.690;2023-07-09T14:58:27;33.10;55.70
16128;DHT22;8168;49.036;7.690;2023-07-09T15:00:57;33.10;55.70
16128;DHT22;8168;49.036;7.690;2023-07-09T15:03:28;33.20;55.40
16128;DHT22;8168;49.036;7.690;2023-07-09T15:05:59;33.10;55.30
16128;DHT22;8168;49.036;7.690;2023-07-09T15:08:32;33.10;57.30
16128;DHT22;8168;49.036;7.690;2023-07-09T15:11:03;32.90;56.90
16128;DHT22;8168;49.036;7.690;2023-07-09T15:13:35;32.90;58.10
16128;DHT22;8168;49.036;7.690;2023-07-09T15:16:07;32.80;58.80
16128;DHT22;8168;49.036;7.690;2023-07-09T15:18:38;32.60;59.80
16128;DHT22;8168;49.036;7.690;2023-07-09T15:21:09;32.60;61.30
16128;DHT22;8168;49.036;7.690;2023-07-09T15:23:42;32.40;61.90
16128;DHT22;8168;49.036;7.690;2023-07-09T15:26:15;32.30;62.80
16128;DHT22;8168;49.036;7.690;2023-07-09T15:28:46;32.20;63.50
16128;DHT22;8168;49.036;7.690;2023-07-09T15:31:20;32.10;65.80
16128;DHT22;8168;49.036;7.690;2023-07-09T15:33:51;31.80;66.90
16128;DHT22;8168;49.036;7.690;2023-07-09T15:36:21;31.80;67.40
16128;DHT22;8168;49.036;7.690;2023-07-09T15:38:52;31.70;67.00
16128;DHT22;8168;49.036;7.690;2023-07-09T15:41:22;31.70;67.90
16128;DHT22;8168;49.036;7.690;2023-07-09T15:43:53;31.60;66.60
16128;DHT22;8168;49.036;7.690;2023-07-09T15:46:24;31.70;67.90
16128;DHT22;8168;49.036;7.690;2023-07-09T15:48:55;31.70;66.10
16128;DHT22;8168;49.036;7.690;2023-07-09T15:51:26;31.80;63.80
16128;DHT22;8168;49.036;7.690;2023-07-09T15:53:56;31.90;61.70
16128;DHT22;8168;49.036;7.690;2023-07-09T15:56:29;32.00;59.00
16128;DHT22;8168;49.036;7.690;2023-07-09T15:59:01;32.00;58.70
16128;DHT22;8168;49.036;7.690;2023-07-09T16:01:32;32.10;58.30
16128;DHT22;8168;49.036;7.690;2023-07-09T16:04:03;32.10;58.30
16128;DHT22;8168;49.036;7.690;2023-07-09T16:06:39;32.10;58.40
16128;DHT22;8168;49.036;7.690;2023-07-09T16:09:11;32.10;58.10
16128;DHT22;8168;49.036;7.690;2023-07-09T16:11:47;32.10;58.10
16128;DHT22;8168;49.036;7.690;2023-07-09T16:14:27;32.00;57.40
16128;DHT22;8168;49.036;7.690;2023-07-09T16:17:00;32.00;57.30
16128;DHT22;8168;49.036;7.690;2023-07-09T16:19:31;31.10;57.30
16128;DHT22;8168;49.036;7.690;2023-07-09T16:22:04;32.00;57.80
16128;DHT22;8168;49.036;7.690;2023-07-09T16:24:35;32.10;56.80
16128;DHT22;8168;49.036;7.690;2023-07-09T16:27:09;32.10;56.50
16128;DHT22;8168;49.036;7.690;2023-07-09T16:29:42;32.20;56.50
16128;DHT22;8168;49.036;7.690;2023-07-09T16:32:13;32.20;55.50
16128;DHT22;8168;49.036;7.690;2023-07-09T16:34:43;32.20;55.60
16128;DHT22;8168;49.036;7.690;2023-07-09T16:37:17;32.20;55.60
16128;DHT22;8168;49.036;7.690;2023-07-09T16:39:50;32.20;56.20
16128;DHT22;8168;49.036;7.690;2023-07-09T16:42:21;32.20;57.10
16128;DHT22;8168;49.036;7.690;2023-07-09T16:44:51;32.20;54.20
16128;DHT22;8168;49.036;7.690;2023-07-09T16:47:22;32.10;54.10
16128;DHT22;8168;49.036;7.690;2023-07-09T16:49:52;30.50;53.70
16128;DHT22;8168;49.036;7.690;2023-07-09T16:52:25;32.00;55.90
16128;DHT22;8168;49.036;7.690;2023-07-09T16:54:56;31.80;56.90
16128;DHT22;8168;49.036;7.690;2023-07-09T16:57:31;31.80;57.10
16128;DHT22;8168;49.036;7.690;2023-07-09T17:00:27;31.80;56.90